Terminal Aerodrome Forecast
Issued by NWS

Home | Current Version | Previous Version | Text Only | Print | Product List | Glossary On
Versions: 1 2 3 4 5 6 7 8 9 10 11 12 13 14 15 16 17 18 19 20 21 22
000
FTAK31 PANC 170421 AAA
TAFAGK
TAF AMD
PAGK 170421Z 1704/1724 16008KT P6SM VCSH SCT025 BKN040
      TEMPO 1704/1706 16012G20KT
     FM170600 17014G22KT P6SM VCSH BKN045
     FM171000 23010KT P6SM VCSH SCT015 BKN025
     FM171500 30004KT 3SM -SHSN BKN015
     FM172200 31005KT P6SM SCT015 BKN030=

USA.gov is the U.S. government's official web portal to all federal, state and local government web resources and services.